Time;durP1;ratioP1;P1;durP2;ratioP2;P2;SDS_P1;SDS_P2;PMS_P1;PMS_P2;Temp;Humidity;BMP_temperature;BMP_pressure;BME280_temperature;BME280_humidity;BME280_pressure;Samples;Min_cycle;Max_cycle;Signal;HPM_P1;HPM_P2
2021/04/12 00:00:15;;;;;;;;;;;19.90;49.80;;;;;;5028973;28;19931;-67
2021/04/12 00:02:46;;;;;;;;;;;19.90;49.80;;;;;;5047349;28;20422;-68
2021/04/12 00:05:23;;;;;;;;;;;19.90;50.40;;;;;;5047216;28;19921;-67
2021/04/12 00:07:49;;;;;;;;;;;19.80;49.60;;;;;;5028658;28;19921;-67
2021/04/12 00:10:31;;;;;;;;;;;19.90;49.70;;;;;;5047074;28;20338;-67
2021/04/12 00:12:59;;;;;;;;;;;19.90;49.70;;;;;;5026694;28;19924;-68
2021/04/12 00:15:43;;;;;;;;;;;19.90;49.70;;;;;;5057089;22;20589;-59
2021/04/12 00:18:14;;;;;;;;;;;19.80;49.60;;;;;;4998425;28;19918;-57
2021/04/12 00:20:58;;;;;;;;;;;19.80;49.60;;;;;;4999487;28;19953;-57
2021/04/12 00:23:29;;;;;;;;;;;19.80;49.60;;;;;;4974700;28;19925;-58
2021/04/12 00:26:00;;;;;;;;;;;19.80;49.60;;;;;;4983385;28;19918;-57
2021/04/12 00:28:26;;;;;;;;;;;19.80;49.60;;;;;;5000710;28;19925;-57
2021/04/12 00:31:11;;;;;;;;;;;19.80;49.60;;;;;;5002867;28;19918;-56
2021/04/12 00:33:39;;;;;;;;;;;19.80;49.60;;;;;;4986004;28;19922;-54
2021/04/12 00:36:17;;;;;;;;;;;19.80;49.60;;;;;;5001537;28;19944;-54
2021/04/12 00:38:54;;;;;;;;;;;19.80;49.60;;;;;;4986431;28;19932;-58
2021/04/12 00:41:38;;;;;;;;;;;19.80;49.60;;;;;;4985111;28;19918;-55
2021/04/12 00:44:10;;;;;;;;;;;19.80;49.60;;;;;;5002925;28;20012;-56
2021/04/12 00:46:35;;;;;;;;;;;19.80;49.50;;;;;;4985513;28;20857;-56
2021/04/12 00:49:01;;;;;;;;;;;19.80;49.40;;;;;;4985256;28;20005;-55
2021/04/12 00:51:38;;;;;;;;;;;19.80;49.40;;;;;;5002887;28;19924;-57
2021/04/12 00:54:13;;;;;;;;;;;19.80;49.50;;;;;;5001875;28;19925;-55
2021/04/12 00:56:55;;;;;;;;;;;19.80;49.40;;;;;;5003036;28;19941;-55
2021/04/12 00:59:33;;;;;;;;;;;19.80;49.40;;;;;;4985035;28;19922;-57
2021/04/12 01:02:17;;;;;;;;;;;19.80;49.40;;;;;;5003556;28;19924;-56
2021/04/12 01:05:01;;;;;;;;;;;19.80;49.30;;;;;;5002739;28;20433;-56
2021/04/12 01:07:35;;;;;;;;;;;19.80;49.30;;;;;;5002297;28;19949;-56
2021/04/12 01:10:09;;;;;;;;;;;19.80;49.30;;;;;;5000655;28;19917;-55
2021/04/12 01:12:41;;;;;;;;;;;19.70;49.20;;;;;;5002929;28;20477;-57
2021/04/12 01:15:06;;;;;;;;;;;19.70;49.20;;;;;;5002159;28;19968;-56
2021/04/12 01:17:36;;;;;;;;;;;19.80;49.20;;;;;;5003391;28;19963;-53
2021/04/12 01:20:07;;;;;;;;;;;19.70;49.20;;;;;;5000906;28;19922;-55
2021/04/12 01:22:42;;;;;;;;;;;19.70;49.20;;;;;;4984742;28;19918;-56
2021/04/12 01:25:07;;;;;;;;;;;19.70;49.20;;;;;;4984919;28;20001;-56
2021/04/12 01:27:51;;;;;;;;;;;19.70;49.10;;;;;;5001816;28;20040;-57
2021/04/12 01:30:26;;;;;;;;;;;19.70;49.10;;;;;;5002561;28;19921;-55
2021/04/12 01:33:10;;;;;;;;;;;19.70;49.00;;;;;;4975948;28;19925;-56
2021/04/12 01:35:35;;;;;;;;;;;19.70;49.00;;;;;;4983879;28;19917;-55
2021/04/12 01:38:02;;;;;;;;;;;19.70;49.00;;;;;;5003294;28;20096;-55
2021/04/12 01:40:46;;;;;;;;;;;19.70;48.90;;;;;;5000835;28;19921;-56
2021/04/12 01:43:15;;;;;;;;;;;19.70;49.00;;;;;;4995789;28;20543;-56
2021/04/12 01:45:47;;;;;;;;;;;19.70;49.00;;;;;;5003996;28;19918;-55
2021/04/12 01:48:33;;;;;;;;;;;19.70;49.00;;;;;;4969075;28;19921;-55
2021/04/12 01:51:11;;;;;;;;;;;19.70;48.90;;;;;;4991261;28;20418;-54
2021/04/12 01:53:42;;;;;;;;;;;19.70;48.90;;;;;;5003199;28;20016;-58
2021/04/12 01:56:13;;;;;;;;;;;19.70;48.80;;;;;;5001244;28;19991;-56
2021/04/12 01:58:47;;;;;;;;;;;19.70;48.80;;;;;;5001611;28;19932;-53
2021/04/12 02:01:15;;;;;;;;;;;19.70;48.80;;;;;;4985930;28;19918;-54
2021/04/12 02:03:46;;;;;;;;;;;19.70;48.80;;;;;;5003533;28;20378;-57
2021/04/12 02:06:15;;;;;;;;;;;19.70;48.80;;;;;;5003670;28;19922;-56
2021/04/12 02:08:52;;;;;;;;;;;19.70;48.80;;;;;;5002928;28;19948;-57
2021/04/12 02:11:27;;;;;;;;;;;19.70;48.80;;;;;;5002239;28;19922;-55
2021/04/12 02:14:14;;;;;;;;;;;19.70;48.70;;;;;;5003456;28;19917;-56
2021/04/12 02:16:45;;;;;;;;;;;19.70;48.70;;;;;;4968948;28;20304;-58
2021/04/12 02:19:13;;;;;;;;;;;19.70;48.70;;;;;;5003225;28;20019;-56
2021/04/12 02:21:45;;;;;;;;;;;19.70;48.70;;;;;;5002125;28;20418;-57
2021/04/12 02:24:29;;;;;;;;;;;19.70;48.70;;;;;;5002772;28;19924;-56
2021/04/12 02:27:14;;;;;;;;;;;19.70;48.70;;;;;;4995695;28;19944;-54
2021/04/12 02:29:43;;;;;;;;;;;19.60;48.60;;;;;;5001806;28;20000;-57
2021/04/12 02:32:13;;;;;;;;;;;19.70;48.60;;;;;;5005554;28;19918;-56
2021/04/12 02:34:41;;;;;;;;;;;19.70;48.60;;;;;;5006753;28;19928;-55
2021/04/12 02:37:09;;;;;;;;;;;19.60;48.50;;;;;;4988496;28;19925;-56
2021/04/12 02:39:44;;;;;;;;;;;19.70;48.60;;;;;;5005295;28;19926;-55
2021/04/12 02:42:13;;;;;;;;;;;19.70;48.50;;;;;;4972001;28;20440;-56
2021/04/12 02:44:55;;;;;;;;;;;19.70;48.60;;;;;;5005611;28;20331;-57
2021/04/12 02:47:23;;;;;;;;;;;19.60;48.60;;;;;;5005018;28;19961;-57
2021/04/12 02:50:07;;;;;;;;;;;19.60;48.50;;;;;;4988694;28;19917;-55
2021/04/12 02:52:41;;;;;;;;;;;19.60;48.60;;;;;;5005110;28;19918;-57
2021/04/12 02:55:17;;;;;;;;;;;19.60;48.60;;;;;;4987645;28;19932;-57
2021/04/12 02:57:51;;;;;;;;;;;19.60;48.60;;;;;;4988055;28;19917;-55
2021/04/12 03:00:22;;;;;;;;;;;19.60;48.50;;;;;;5006212;28;19929;-57
2021/04/12 03:02:50;;;;;;;;;;;19.60;48.50;;;;;;5004727;28;20092;-56
2021/04/12 03:05:18;;;;;;;;;;;19.60;49.20;;;;;;5005743;28;19917;-57
2021/04/12 03:08:03;;;;;;;;;;;19.60;48.50;;;;;;4997750;28;19988;-57
2021/04/12 03:10:40;;;;;;;;;;;19.60;48.50;;;;;;5005746;28;19917;-59
2021/04/12 03:13:25;;;;;;;;;;;19.60;48.50;;;;;;5005430;28;19990;-57
2021/04/12 03:15:53;;;;;;;;;;;19.60;48.50;;;;;;5004590;28;19952;-57
2021/04/12 03:18:22;;;;;;;;;;;19.60;48.50;;;;;;5004862;28;19956;-59
2021/04/12 03:21:02;;;;;;;;;;;19.60;48.40;;;;;;5005373;28;19933;-60
2021/04/12 03:23:31;;;;;;;;;;;19.60;48.40;;;;;;5005479;28;20123;-59
2021/04/12 03:25:59;;;;;;;;;;;19.60;48.40;;;;;;5005256;28;19922;-58
2021/04/12 03:28:43;;;;;;;;;;;19.60;48.30;;;;;;4995006;28;19921;-56
2021/04/12 03:31:29;;;;;;;;;;;19.60;48.30;;;;;;5004454;28;19925;-58
2021/04/12 03:33:59;;;;;;;;;;;19.60;48.30;;;;;;5003498;28;19993;-57
2021/04/12 03:36:31;;;;;;;;;;;19.60;48.30;;;;;;5002394;28;19924;-57
2021/04/12 03:39:06;;;;;;;;;;;19.50;48.30;;;;;;5004398;28;20430;-58
2021/04/12 03:41:41;;;;;;;;;;;19.50;48.30;;;;;;4987374;28;19983;-56
2021/04/12 03:44:06;;;;;;;;;;;19.50;48.30;;;;;;5004250;28;19917;-56
2021/04/12 03:46:41;;;;;;;;;;;19.50;48.20;;;;;;5004605;28;19917;-57
2021/04/12 03:49:09;;;;;;;;;;;19.50;48.20;;;;;;5004920;28;20367;-56
2021/04/12 03:51:53;;;;;;;;;;;19.50;48.20;;;;;;5004601;28;19925;-57
2021/04/12 03:54:22;;;;;;;;;;;19.50;48.30;;;;;;5004768;28;19918;-55
2021/04/12 03:56:47;;;;;;;;;;;19.50;48.20;;;;;;5004498;28;19932;-58
2021/04/12 03:59:23;;;;;;;;;;;19.50;48.30;;;;;;5003927;28;19922;-56
2021/04/12 04:02:06;;;;;;;;;;;19.50;48.30;;;;;;4986197;28;19921;-55
2021/04/12 04:04:38;;;;;;;;;;;19.50;48.30;;;;;;4986934;28;19925;-56
2021/04/12 04:07:16;;;;;;;;;;;19.50;48.30;;;;;;5004761;28;20317;-57
2021/04/12 04:09:48;;;;;;;;;;;19.50;48.30;;;;;;5003081;28;19926;-57
2021/04/12 04:12:27;;;;;;;;;;;19.50;48.30;;;;;;5004039;28;19917;-58
2021/04/12 04:14:52;;;;;;;;;;;19.50;48.30;;;;;;4986197;28;20379;-58
2021/04/12 04:17:39;;;;;;;;;;;19.50;48.20;;;;;;5004960;28;19952;-57
2021/04/12 04:20:10;;;;;;;;;;;19.50;48.20;;;;;;5002328;28;19930;-60
2021/04/12 04:22:36;;;;;;;;;;;19.40;48.30;;;;;;5004540;28;20569;-52
2021/04/12 04:25:01;;;;;;;;;;;19.50;49.40;;;;;;5000905;28;20382;-56
2021/04/12 04:27:45;;;;;;;;;;;19.50;49.20;;;;;;4989152;28;19937;-55
2021/04/12 04:30:30;;;;;;;;;;;19.50;48.90;;;;;;5003278;28;19979;-54
2021/04/12 04:33:04;;;;;;;;;;;19.50;48.80;;;;;;4985062;28;19927;-54
2021/04/12 04:35:48;;;;;;;;;;;19.50;48.70;;;;;;4995893;28;19963;-57
2021/04/12 04:38:31;;;;;;;;;;;19.50;48.80;;;;;;5003741;28;19922;-62
2021/04/12 04:40:59;;;;;;;;;;;19.50;48.90;;;;;;5003416;28;19922;-54
2021/04/12 04:43:36;;;;;;;;;;;19.50;50.50;;;;;;4995949;28;19921;-53
2021/04/12 04:46:15;;;;;;;;;;;19.50;50.00;;;;;;5000225;28;19918;-57
2021/04/12 04:48:44;;;;;;;;;;;19.50;49.70;;;;;;4986108;28;19914;-57
2021/04/12 04:51:22;;;;;;;;;;;19.40;49.70;;;;;;5003002;28;19917;-55
2021/04/12 04:54:05;;;;;;;;;;;19.40;50.00;;;;;;5003599;28;20020;-54
2021/04/12 04:56:31;;;;;;;;;;;19.30;50.50;;;;;;5002251;28;19917;-57
2021/04/12 04:58:56;;;;;;;;;;;19.30;50.50;;;;;;5004681;28;19924;-52
2021/04/12 05:01:22;;;;;;;;;;;19.30;50.50;;;;;;5004552;28;19917;-55
2021/04/12 05:03:50;;;;;;;;;;;19.30;50.40;;;;;;5004067;28;19925;-56
2021/04/12 05:06:23;;;;;;;;;;;19.30;50.20;;;;;;5004106;28;19953;-57
2021/04/12 05:08:50;;;;;;;;;;;19.30;50.10;;;;;;4985595;28;19917;-55
2021/04/12 05:11:21;;;;;;;;;;;19.30;50.00;;;;;;5003588;28;19980;-55
2021/04/12 05:14:05;;;;;;;;;;;19.30;49.90;;;;;;5004053;28;19952;-53
2021/04/12 05:16:40;;;;;;;;;;;19.30;49.70;;;;;;5000063;28;19921;-55
2021/04/12 05:19:14;;;;;;;;;;;19.30;49.60;;;;;;5003936;28;20642;-52
2021/04/12 05:21:46;;;;;;;;;;;19.30;49.50;;;;;;5004277;28;19924;-58
2021/04/12 05:24:14;;;;;;;;;;;19.30;49.50;;;;;;5003065;28;19979;-55
2021/04/12 05:26:54;;;;;;;;;;;19.30;49.40;;;;;;5002539;28;19925;-57
2021/04/12 05:29:26;;;;;;;;;;;19.30;50.10;;;;;;5003401;28;19924;-57
2021/04/12 05:32:11;;;;;;;;;;;19.30;51.40;;;;;;5004486;28;19933;-56
2021/04/12 05:34:45;;;;;;;;;;;19.30;51.40;;;;;;5003792;28;20059;-56
2021/04/12 05:37:26;;;;;;;;;;;19.30;51.70;;;;;;5004994;28;19914;-57
2021/04/12 05:40:10;;;;;;;;;;;19.30;51.50;;;;;;5006249;28;19918;-53
2021/04/12 05:42:43;;;;;;;;;;;19.30;51.30;;;;;;5006019;28;20383;-54
2021/04/12 05:45:27;;;;;;;;;;;19.30;51.00;;;;;;4988623;28;19961;-56
2021/04/12 05:48:01;;;;;;;;;;;19.40;51.00;;;;;;5005897;28;20635;-56
2021/04/12 05:50:29;;;;;;;;;;;19.40;50.60;;;;;;4987990;28;19920;-56
2021/04/12 05:53:14;;;;;;;;;;;19.40;50.50;;;;;;5004829;28;19918;-57
2021/04/12 05:55:55;;;;;;;;;;;19.40;50.30;;;;;;5004764;28;19920;-56
2021/04/12 05:58:26;;;;;;;;;;;19.30;50.10;;;;;;5002139;28;19914;-55
2021/04/12 06:01:10;;;;;;;;;;;19.40;50.10;;;;;;5005300;28;19967;-54
2021/04/12 06:03:36;;;;;;;;;;;19.40;50.00;;;;;;5005208;28;19920;-55
2021/04/12 06:06:20;;;;;;;;;;;19.40;50.00;;;;;;5006700;28;19917;-56
2021/04/12 06:08:57;;;;;;;;;;;19.40;49.90;;;;;;5007608;28;20466;-55
2021/04/12 06:11:23;;;;;;;;;;;19.40;49.90;;;;;;5009542;28;19913;-55
2021/04/12 06:13:57;;;;;;;;;;;19.40;49.80;;;;;;5009421;28;19920;-55
2021/04/12 06:16:32;;;;;;;;;;;19.40;49.80;;;;;;5043943;22;19932;-61
2021/04/12 06:19:16;;;;;;;;;;;19.40;49.80;;;;;;5065993;28;19966;-60
2021/04/12 06:21:45;;;;;;;;;;;19.40;49.70;;;;;;5066458;28;19920;-61
2021/04/12 06:24:19;;;;;;;;;;;19.30;49.60;;;;;;5066760;28;20443;-60
2021/04/12 06:26:48;;;;;;;;;;;19.40;49.70;;;;;;5065391;28;20313;-60
2021/04/12 06:29:32;;;;;;;;;;;19.40;49.60;;;;;;5066341;28;19919;-61
2021/04/12 06:32:16;;;;;;;;;;;19.30;50.20;;;;;;5066735;28;19952;-61
2021/04/12 06:34:59;;;;;;;;;;;19.30;49.50;;;;;;5065168;28;20303;-60
2021/04/12 06:37:43;;;;;;;;;;;19.40;49.40;;;;;;5065544;28;20424;-61
2021/04/12 06:40:26;;;;;;;;;;;19.40;49.40;;;;;;5064926;28;20344;-60
2021/04/12 06:42:51;;;;;;;;;;;19.30;49.30;;;;;;5063965;28;19965;-61
2021/04/12 06:45:40;;;;;;;;;;;19.30;49.40;;;;;;5065883;28;20386;-61
2021/04/12 06:48:09;;;;;;;;;;;19.40;49.40;;;;;;5026431;28;19922;-60
2021/04/12 06:50:54;;;;;;;;;;;19.30;49.30;;;;;;5064979;28;20317;-60
2021/04/12 06:53:34;;;;;;;;;;;19.30;49.30;;;;;;5064299;28;19913;-61
2021/04/12 06:56:11;;;;;;;;;;;19.30;49.30;;;;;;5065221;28;20262;-61
2021/04/12 06:58:42;;;;;;;;;;;19.30;49.20;;;;;;5065173;28;20048;-61
2021/04/12 07:01:17;;;;;;;;;;;19.30;49.20;;;;;;5063173;28;19920;-60
2021/04/12 07:04:01;;;;;;;;;;;19.30;49.20;;;;;;5063950;28;19913;-61
2021/04/12 07:06:30;;;;;;;;;;;19.30;49.10;;;;;;5064389;28;19966;-61
2021/04/12 07:09:07;;;;;;;;;;;19.30;49.10;;;;;;5064137;28;20369;-61
2021/04/12 07:11:33;;;;;;;;;;;19.30;49.10;;;;;;5062409;28;20231;-61
2021/04/12 07:14:17;;;;;;;;;;;19.30;49.10;;;;;;5064592;28;19920;-60
2021/04/12 07:17:01;;;;;;;;;;;19.30;49.10;;;;;;5064223;28;19932;-60
2021/04/12 07:19:45;;;;;;;;;;;19.30;49.10;;;;;;5064184;28;20392;-60
2021/04/12 07:22:29;;;;;;;;;;;19.30;49.10;;;;;;5064776;28;20373;-61
2021/04/12 07:24:55;;;;;;;;;;;19.30;49.00;;;;;;5064141;28;19974;-61
2021/04/12 07:27:39;;;;;;;;;;;19.30;49.00;;;;;;5065114;28;19912;-61
2021/04/12 07:30:19;;;;;;;;;;;19.30;49.00;;;;;;5063424;28;20354;-58
2021/04/12 07:33:03;;;;;;;;;;;19.30;49.00;;;;;;5066558;28;19977;-59
2021/04/12 07:35:28;;;;;;;;;;;19.30;48.90;;;;;;5064838;28;19913;-60
2021/04/12 07:38:00;;;;;;;;;;;19.30;49.00;;;;;;5066860;28;19919;-60
2021/04/12 07:40:31;;;;;;;;;;;19.20;48.90;;;;;;5065855;28;19916;-62
2021/04/12 07:42:57;;;;;;;;;;;19.20;48.90;;;;;;5066312;28;20281;-60
2021/04/12 07:45:56;;;;;;;;;;;19.20;48.80;;;;;;5066384;28;20015;-58
2021/04/12 07:48:47;;;;;;;;;;;19.20;48.90;;;;;;5055899;28;19912;-60
2021/04/12 07:51:31;;;;;;;;;;;19.20;48.90;;;;;;5063335;28;20008;-61
2021/04/12 07:54:15;;;;;;;;;;;19.20;48.90;;;;;;5064742;28;20374;-60
2021/04/12 07:57:00;;;;;;;;;;;19.20;48.80;;;;;;5065319;28;19919;-59
2021/04/12 07:59:44;;;;;;;;;;;19.20;48.80;;;;;;5065101;28;19927;-65
2021/04/12 08:02:19;;;;;;;;;;;19.20;48.80;;;;;;5065828;28;19913;-60
2021/04/12 08:05:04;;;;;;;;;;;19.20;48.80;;;;;;5064475;28;19921;-60
2021/04/12 08:07:41;;;;;;;;;;;19.20;48.80;;;;;;5063298;28;19920;-60
2021/04/12 08:10:25;;;;;;;;;;;19.20;48.80;;;;;;5064813;28;20196;-60
2021/04/12 08:13:13;;;;;;;;;;;19.10;48.70;;;;;;5065861;28;19923;-61
2021/04/12 08:15:50;;;;;;;;;;;19.20;48.70;;;;;;5063100;28;19912;-60
2021/04/12 08:18:29;;;;;;;;;;;19.20;48.70;;;;;;5063871;28;19924;-60
2021/04/12 08:21:06;;;;;;;;;;;19.20;48.70;;;;;;5063661;28;19943;-60
2021/04/12 08:23:55;;;;;;;;;;;19.20;48.70;;;;;;5063225;28;19939;-59
2021/04/12 08:26:33;;;;;;;;;;;19.20;48.80;;;;;;5063863;28;20328;-60
2021/04/12 08:29:17;;;;;;;;;;;19.10;48.70;;;;;;5046065;28;20006;-60
2021/04/12 08:31:56;;;;;;;;;;;19.10;48.70;;;;;;5064540;28;19983;-60
2021/04/12 08:34:40;;;;;;;;;;;19.20;48.70;;;;;;5063049;28;19913;-60
2021/04/12 08:37:11;;;;;;;;;;;19.10;48.60;;;;;;5064042;28;19956;-60
2021/04/12 08:39:55;;;;;;;;;;;19.10;48.60;;;;;;5047272;28;19924;-60
2021/04/12 08:42:33;;;;;;;;;;;19.10;48.50;;;;;;5066442;28;20318;-60
2021/04/12 08:45:20;;;;;;;;;;;19.10;48.50;;;;;;5065900;28;19916;-60
2021/04/12 08:47:53;;;;;;;;;;;19.10;48.60;;;;;;5048335;28;19916;-60
2021/04/12 08:50:23;;;;;;;;;;;19.10;48.60;;;;;;5048423;28;19966;-60
2021/04/12 08:52:54;;;;;;;;;;;19.10;48.50;;;;;;5048643;28;19916;-60
2021/04/12 08:55:29;;;;;;;;;;;19.10;48.60;;;;;;5066024;28;20295;-60
2021/04/12 08:58:09;;;;;;;;;;;19.10;48.50;;;;;;5065573;28;19920;-60
2021/04/12 09:00:41;;;;;;;;;;;19.10;48.50;;;;;;5064986;28;20364;-60
2021/04/12 09:03:14;;;;;;;;;;;19.00;48.80;;;;;;5048306;28;20003;-60
2021/04/12 09:05:55;;;;;;;;;;;19.10;49.20;;;;;;5048489;28;20403;-60
2021/04/12 09:08:39;;;;;;;;;;;19.10;50.00;;;;;;5065793;28;19913;-59
2021/04/12 09:11:05;;;;;;;;;;;19.00;49.60;;;;;;5065993;28;19998;-60
2021/04/12 09:13:36;;;;;;;;;;;19.00;49.90;;;;;;5066540;28;20417;-60
2021/04/12 09:16:14;;;;;;;;;;;19.00;49.90;;;;;;5047533;28;19977;-60
2021/04/12 09:18:58;;;;;;;;;;;19.00;49.80;;;;;;5065736;28;19912;-59
2021/04/12 09:21:26;;;;;;;;;;;19.10;49.70;;;;;;5066336;28;19920;-60
2021/04/12 09:24:10;;;;;;;;;;;19.10;49.60;;;;;;5066224;28;20281;-60
2021/04/12 09:26:44;;;;;;;;;;;19.10;49.50;;;;;;5048360;28;19995;-60
2021/04/12 09:29:13;;;;;;;;;;;19.10;49.60;;;;;;5065416;28;19920;-60
2021/04/12 09:31:47;;;;;;;;;;;19.10;49.50;;;;;;5066004;28;20012;-60
2021/04/12 09:34:15;;;;;;;;;;;19.10;49.50;;;;;;5047845;28;20447;-61
2021/04/12 09:36:50;;;;;;;;;;;19.10;49.40;;;;;;5065092;28;19913;-61
2021/04/12 09:39:34;;;;;;;;;;;19.10;49.30;;;;;;5065528;28;19924;-61
2021/04/12 09:42:17;;;;;;;;;;;19.10;49.30;;;;;;5069611;28;19998;-60
2021/04/12 09:45:01;;;;;;;;;;;19.00;49.30;;;;;;5051485;28;19916;-60
2021/04/12 09:47:44;;;;;;;;;;;19.00;49.20;;;;;;5069407;28;19913;-59
2021/04/12 09:50:16;;;;;;;;;;;19.00;49.10;;;;;;5069029;28;20112;-60
2021/04/12 09:52:47;;;;;;;;;;;19.00;49.10;;;;;;5069726;28;19913;-59
2021/04/12 09:55:31;;;;;;;;;;;19.00;49.10;;;;;;5069633;28;19978;-60
2021/04/12 09:58:16;;;;;;;;;;;19.00;49.10;;;;;;5069161;28;19913;-62
2021/04/12 10:01:00;;;;;;;;;;;19.00;49.20;;;;;;5068944;28;19994;-61
2021/04/12 10:03:44;;;;;;;;;;;19.00;49.10;;;;;;5069981;28;19919;-61
2021/04/12 10:06:28;;;;;;;;;;;19.10;49.10;;;;;;5069218;28;20347;-60
2021/04/12 10:09:13;;;;;;;;;;;19.00;49.00;;;;;;5067924;28;19913;-61
2021/04/12 10:11:48;;;;;;;;;;;19.00;48.90;;;;;;5051564;28;20112;-60
2021/04/12 10:14:14;;;;;;;;;;;19.00;49.00;;;;;;5051410;28;20368;-60
2021/04/12 10:16:40;;;;;;;;;;;19.00;48.90;;;;;;5068395;28;19950;-60
2021/04/12 10:19:16;;;;;;;;;;;19.00;48.90;;;;;;5050424;28;19916;-60
2021/04/12 10:21:48;;;;;;;;;;;19.00;48.90;;;;;;5068871;28;19923;-60
2021/04/12 10:24:25;;;;;;;;;;;19.00;48.90;;;;;;5050816;28;20263;-59
2021/04/12 10:27:10;;;;;;;;;;;19.00;48.90;;;;;;5050578;28;19912;-60
2021/04/12 10:29:38;;;;;;;;;;;19.00;48.80;;;;;;5064870;28;19924;-60
2021/04/12 10:32:09;;;;;;;;;;;19.00;48.90;;;;;;5067022;28;19960;-60
2021/04/12 10:34:38;;;;;;;;;;;19.00;48.90;;;;;;5049600;28;20348;-61
2021/04/12 10:37:05;;;;;;;;;;;18.90;48.80;;;;;;5048934;28;19912;-61
2021/04/12 10:39:30;;;;;;;;;;;18.90;48.80;;;;;;5050542;28;19986;-60
2021/04/12 10:42:08;;;;;;;;;;;18.90;48.80;;;;;;5069031;28;20381;-60
2021/04/12 10:44:35;;;;;;;;;;;18.90;48.80;;;;;;5067970;28;20484;-59
2021/04/12 10:47:10;;;;;;;;;;;18.90;48.90;;;;;;5049875;28;19997;-61
2021/04/12 10:49:48;;;;;;;;;;;18.90;48.90;;;;;;5050385;28;19968;-60
2021/04/12 10:52:16;;;;;;;;;;;18.90;48.90;;;;;;5068495;28;20365;-59
2021/04/12 10:54:48;;;;;;;;;;;18.90;48.80;;;;;;5069859;28;19931;-60
2021/04/12 10:57:14;;;;;;;;;;;18.90;48.90;;;;;;5049806;28;19920;-60
2021/04/12 10:59:58;;;;;;;;;;;18.90;49.50;;;;;;5068703;28;19916;-60
2021/04/12 11:02:38;;;;;;;;;;;18.90;48.80;;;;;;5068571;28;20365;-60
2021/04/12 11:05:10;;;;;;;;;;;18.90;48.90;;;;;;5049567;28;19944;-60
2021/04/12 11:07:38;;;;;;;;;;;18.90;48.90;;;;;;5049334;28;19916;-60
2021/04/12 11:10:07;;;;;;;;;;;18.90;48.80;;;;;;5068055;28;19916;-59
2021/04/12 11:12:51;;;;;;;;;;;18.90;48.80;;;;;;5050034;28;19917;-60
2021/04/12 11:15:18;;;;;;;;;;;18.90;48.80;;;;;;5049760;28;19921;-60
2021/04/12 11:18:07;;;;;;;;;;;18.90;48.80;;;;;;5067406;28;19920;-61
2021/04/12 11:20:40;;;;;;;;;;;18.90;48.90;;;;;;5056674;28;20332;-60
2021/04/12 11:23:19;;;;;;;;;;;18.90;48.80;;;;;;5067933;28;20003;-61
2021/04/12 11:26:14;;;;;;;;;;;18.90;48.80;;;;;;5068144;28;20309;-60
2021/04/12 11:28:42;;;;;;;;;;;18.90;48.80;;;;;;5049991;28;19935;-61
2021/04/12 11:31:28;;;;;;;;;;;18.90;48.80;;;;;;5049765;28;19996;-60
2021/04/12 11:34:06;;;;;;;;;;;18.90;48.90;;;;;;5053774;28;19917;-61
2021/04/12 11:36:36;;;;;;;;;;;18.80;48.80;;;;;;5067886;28;19912;-60
2021/04/12 11:39:02;;;;;;;;;;;18.80;48.80;;;;;;5067540;28;20381;-61
2021/04/12 11:41:45;;;;;;;;;;;18.80;48.80;;;;;;5068150;28;19951;-61
2021/04/12 11:44:13;;;;;;;;;;;18.90;49.30;;;;;;5067659;28;20278;-60
2021/04/12 11:46:45;;;;;;;;;;;18.80;49.80;;;;;;5050096;28;19962;-60
2021/04/12 11:49:16;;;;;;;;;;;18.80;49.60;;;;;;5049185;28;19963;-59
2021/04/12 11:51:41;;;;;;;;;;;18.80;49.60;;;;;;5049197;28;19913;-60
2021/04/12 11:54:08;;;;;;;;;;;18.90;49.60;;;;;;5067423;28;19913;-60
2021/04/12 11:56:52;;;;;;;;;;;18.80;49.50;;;;;;5067421;28;19912;-60
2021/04/12 11:59:35;;;;;;;;;;;18.80;49.30;;;;;;5066442;28;19913;-59
2021/04/12 12:02:39;;;;;;;;;;;18.80;49.30;;;;;;5048603;28;19912;-60
2021/04/12 12:05:11;;;;;;;;;;;18.80;49.30;;;;;;4984796;28;20409;-59
2021/04/12 12:07:39;;;;;;;;;;;18.80;49.40;;;;;;4968358;28;19922;-60
2021/04/12 12:10:20;;;;;;;;;;;18.80;49.50;;;;;;5026200;28;19912;-61
2021/04/12 12:12:48;;;;;;;;;;;18.80;49.70;;;;;;5065547;28;19981;-60
2021/04/12 12:15:18;;;;;;;;;;;18.80;49.90;;;;;;5065666;28;19923;-61
2021/04/12 12:17:45;;;;;;;;;;;18.80;50.10;;;;;;4984399;22;1233565;-58
2021/04/12 12:20:13;;;;;;;;;;;18.80;50.20;;;;;;5026029;28;19917;-60
2021/04/12 12:22:48;;;;;;;;;;;18.80;50.10;;;;;;5008691;28;19920;-59
2021/04/12 12:25:13;;;;;;;;;;;18.80;50.00;;;;;;5026437;28;19920;-60
2021/04/12 12:27:42;;;;;;;;;;;18.80;49.80;;;;;;5025414;28;19913;-60
2021/04/12 12:30:09;;;;;;;;;;;18.80;49.80;;;;;;5007635;28;19913;-59
2021/04/12 12:32:41;;;;;;;;;;;18.80;49.80;;;;;;5007835;28;20008;-58
2021/04/12 12:35:22;;;;;;;;;;;18.80;49.80;;;;;;5006976;28;19923;-60
2021/04/12 12:38:08;;;;;;;;;;;18.80;49.60;;;;;;5008520;28;19947;-59
2021/04/12 12:40:35;;;;;;;;;;;18.80;49.60;;;;;;5008138;28;20290;-59
2021/04/12 12:43:02;;;;;;;;;;;18.80;49.50;;;;;;5008703;28;20329;-58
2021/04/12 12:45:28;;;;;;;;;;;18.80;49.50;;;;;;5027403;28;19996;-58
2021/04/12 12:47:55;;;;;;;;;;;18.80;49.50;;;;;;5008288;28;20445;-60
2021/04/12 12:50:22;;;;;;;;;;;18.80;49.40;;;;;;4992105;28;19921;-59
2021/04/12 12:52:50;;;;;;;;;;;18.80;49.40;;;;;;5008509;28;19917;-59
2021/04/12 12:55:19;;;;;;;;;;;18.80;49.40;;;;;;5025939;28;20289;-59
2021/04/12 12:57:45;;;;;;;;;;;18.70;49.30;;;;;;5008448;28;20367;-59
2021/04/12 13:00:14;;;;;;;;;;;18.70;49.30;;;;;;5025768;28;19924;-59
2021/04/12 13:02:39;;;;;;;;;;;18.70;49.40;;;;;;5026178;28;19914;-57
2021/04/12 13:05:18;;;;;;;;;;;18.70;49.30;;;;;;5026229;28;19936;-59
2021/04/12 13:07:43;;;;;;;;;;;18.70;49.30;;;;;;5008375;28;20410;-59
2021/04/12 13:10:10;;;;;;;;;;;18.70;49.20;;;;;;5007472;28;19963;-59
2021/04/12 13:12:37;;;;;;;;;;;18.70;49.20;;;;;;4992108;28;20020;-56
2021/04/12 13:15:18;;;;;;;;;;;18.70;49.10;;;;;;5008193;28;19920;-58
2021/04/12 13:17:43;;;;;;;;;;;18.70;49.10;;;;;;5025797;28;19921;-61
2021/04/12 13:20:13;;;;;;;;;;;18.70;49.10;;;;;;5025408;28;19917;-58
2021/04/12 13:22:39;;;;;;;;;;;18.70;49.10;;;;;;5026443;28;19956;-57
2021/04/12 13:25:20;;;;;;;;;;;18.70;49.00;;;;;;5026013;28;19917;-58
2021/04/12 13:27:47;;;;;;;;;;;18.70;49.00;;;;;;5008470;28;20039;-57
2021/04/12 13:30:13;;;;;;;;;;;18.70;49.00;;;;;;5008276;28;19917;-58
2021/04/12 13:32:40;;;;;;;;;;;18.70;49.00;;;;;;5008120;28;19913;-56
2021/04/12 13:35:05;;;;;;;;;;;18.70;49.00;;;;;;5025878;28;19917;-56
2021/04/12 13:37:31;;;;;;;;;;;18.70;49.00;;;;;;5025606;28;20367;-58
2021/04/12 13:40:08;;;;;;;;;;;18.60;48.90;;;;;;5025909;28;20325;-58
2021/04/12 13:42:52;;;;;;;;;;;18.60;48.90;;;;;;5025742;28;19917;-57
2021/04/12 13:45:25;;;;;;;;;;;18.60;48.90;;;;;;5025419;28;20290;-57
2021/04/12 13:47:51;;;;;;;;;;;18.60;48.90;;;;;;5007896;28;19921;-59
2021/04/12 13:50:26;;;;;;;;;;;18.60;48.90;;;;;;5007213;28;19922;-59
2021/04/12 13:53:00;;;;;;;;;;;18.60;48.80;;;;;;5007557;28;19913;-56
2021/04/12 13:55:30;;;;;;;;;;;18.60;48.80;;;;;;4991447;28;20362;-59
2021/04/12 13:57:58;;;;;;;;;;;18.60;48.80;;;;;;4990848;28;22060;-59
2021/04/12 14:00:24;;;;;;;;;;;18.60;48.80;;;;;;5025022;28;19917;-59
2021/04/12 14:02:55;;;;;;;;;;;18.60;48.80;;;;;;5025506;28;19920;-59
2021/04/12 14:05:28;;;;;;;;;;;18.60;48.80;;;;;;5007990;28;20095;-59
2021/04/12 14:08:05;;;;;;;;;;;18.50;48.80;;;;;;5007345;28;19918;-59
2021/04/12 14:10:31;;;;;;;;;;;18.50;48.70;;;;;;5006187;28;20334;-61
2021/04/12 14:12:58;;;;;;;;;;;18.50;48.80;;;;;;5006116;28;19917;-59
2021/04/12 14:15:42;;;;;;;;;;;18.50;48.70;;;;;;5006360;28;20422;-60
2021/04/12 14:18:07;;;;;;;;;;;18.50;48.90;;;;;;4986474;28;19936;-59
2021/04/12 14:20:45;;;;;;;;;;;18.50;49.20;;;;;;5019275;28;19921;-59
2021/04/12 14:23:18;;;;;;;;;;;18.50;49.30;;;;;;5006504;28;20358;-59
2021/04/12 14:25:44;;;;;;;;;;;18.60;49.40;;;;;;5007010;28;19917;-58
2021/04/12 14:28:18;;;;;;;;;;;18.50;49.40;;;;;;5008496;28;19924;-60
2021/04/12 14:30:50;;;;;;;;;;;18.50;49.40;;;;;;5025009;28;20327;-60
2021/04/12 14:33:26;;;;;;;;;;;18.50;49.70;;;;;;5008019;28;19918;-61
2021/04/12 14:35:57;;;;;;;;;;;18.50;49.70;;;;;;5009150;28;19924;-58
2021/04/12 14:38:23;;;;;;;;;;;18.50;49.70;;;;;;5008529;28;20448;-58
2021/04/12 14:40:52;;;;;;;;;;;18.50;49.70;;;;;;5008289;28;19925;-59
2021/04/12 14:43:19;;;;;;;;;;;18.50;50.30;;;;;;5008850;28;19928;-59
2021/04/12 14:45:48;;;;;;;;;;;18.50;49.70;;;;;;5008388;28;19917;-58
2021/04/12 14:48:16;;;;;;;;;;;18.50;49.70;;;;;;5008502;28;20030;-59
2021/04/12 14:50:49;;;;;;;;;;;18.50;49.60;;;;;;5007257;28;20097;-59
2021/04/12 14:53:15;;;;;;;;;;;18.50;49.70;;;;;;5008186;28;19917;-61
2021/04/12 14:55:41;;;;;;;;;;;18.50;49.60;;;;;;5009897;28;19921;-58
2021/04/12 14:58:07;;;;;;;;;;;18.50;49.60;;;;;;5010064;28;20401;-61